Decoded Metar for OMFJ (FUJEIRAH in UNITED ARAB EMIRATES) (IATA:FJR) | Meteo·Mobile Aviation Weather
aviador You're here:

OMFJ Decoded Metar

FUJEIRAH in UNITED ARAB EMIRATES
Report Time2018-08-21 12:00:00
UTC Time2018-08-21 12:11:54
Flight Rules mvfr MVFR
Wind110° at 09 kt
W.Decomp.*RWY 11: 9.0 kt HW -0 kt LCW
W.Rank110° ranks 2
Current wind is above 110° avg. (6.4)
Visibility6000 m
Phenomena:N/A
Clouds:Few 030 Hf
Expected CloudBase > 2,800 ft AGL from Temp-Dew spread
CeilingNone
Temp33°C (ISA +18)
Dew Point26°C (67% RH)
Heat Index42.2°C
QNH0998 hPa
Density Alt3,110 ft
Elevation92 ft
Report Wrong Elevation
Raw Report
METAR OMFJ 211200Z 11009KT 080V140 6000 FEW030 33/26 Q0998 A2948=

Extra information for OMFJ:More info

Metar Taf Metar & Taf Last 4 Metars F.Rules Stats Wind Profile Meteogram Temp Stats Airport Information Weather charts Add Link Nearby VenuesMetar ALERT Operation Metar Decoded Social comments